Time;durP1;ratioP1;P1;durP2;ratioP2;P2;SDS_P1;SDS_P2;PMS_P1;PMS_P2;Temp;Humidity;BMP_temperature;BMP_pressure;BME280_temperature;BME280_humidity;BME280_pressure;Samples;Min_cycle;Max_cycle;Signal;HPM_P1;HPM_P2
2021/07/17 00:00:52;;;;;;;;;;;18.70;57.50;;;;;;5112328;28;19976;-61
2021/07/17 00:03:19;;;;;;;;;;;18.70;57.60;;;;;;5113013;28;19928;-61
2021/07/17 00:05:46;;;;;;;;;;;18.60;57.60;;;;;;5112513;28;20771;-61
2021/07/17 00:08:12;;;;;;;;;;;18.60;57.80;;;;;;5112821;28;19924;-61
2021/07/17 00:10:40;;;;;;;;;;;18.60;57.90;;;;;;5112731;28;19976;-62
2021/07/17 00:13:07;;;;;;;;;;;18.50;57.90;;;;;;5112940;28;19931;-61
2021/07/17 00:15:34;;;;;;;;;;;18.50;58.20;;;;;;5113081;28;19931;-61
2021/07/17 00:18:00;;;;;;;;;;;18.50;58.30;;;;;;5098970;28;19924;-61
2021/07/17 00:20:26;;;;;;;;;;;18.50;58.60;;;;;;5112745;28;19924;-61
2021/07/17 00:22:52;;;;;;;;;;;18.50;58.50;;;;;;5112757;28;19992;-62
2021/07/17 00:25:19;;;;;;;;;;;18.40;58.70;;;;;;5112575;28;19928;-61
2021/07/17 00:27:46;;;;;;;;;;;18.40;58.70;;;;;;5112563;28;19962;-61
2021/07/17 00:30:13;;;;;;;;;;;18.40;58.80;;;;;;5112832;28;20008;-61
2021/07/17 00:32:40;;;;;;;;;;;18.40;58.90;;;;;;5116492;28;19971;-61
2021/07/17 00:35:07;;;;;;;;;;;18.30;59.00;;;;;;5116173;28;19931;-61
2021/07/17 00:37:33;;;;;;;;;;;18.30;59.00;;;;;;5116038;28;20018;-62
2021/07/17 00:39:59;;;;;;;;;;;18.30;59.10;;;;;;5116496;28;19924;-61
2021/07/17 00:42:26;;;;;;;;;;;18.30;59.20;;;;;;5116066;28;20402;-61
2021/07/17 00:44:52;;;;;;;;;;;18.20;59.30;;;;;;5116389;28;20008;-61
2021/07/17 00:47:18;;;;;;;;;;;18.20;59.60;;;;;;5115947;28;19968;-61
2021/07/17 00:49:45;;;;;;;;;;;18.20;59.90;;;;;;5116178;28;19924;-61
2021/07/17 00:52:11;;;;;;;;;;;18.10;60.10;;;;;;5115918;28;20020;-61
2021/07/17 00:54:38;;;;;;;;;;;18.10;60.10;;;;;;5116229;28;20279;-61
2021/07/17 00:57:05;;;;;;;;;;;18.10;60.20;;;;;;5115988;28;19924;-61
2021/07/17 00:59:33;;;;;;;;;;;18.00;60.40;;;;;;5115455;28;19924;-61
2021/07/17 01:02:00;;;;;;;;;;;18.00;60.60;;;;;;5116220;28;20027;-61
2021/07/17 01:04:27;;;;;;;;;;;18.00;60.60;;;;;;5115999;28;20003;-61
2021/07/17 01:06:56;;;;;;;;;;;17.90;60.80;;;;;;5116019;28;19967;-61
2021/07/17 01:09:23;;;;;;;;;;;18.00;60.90;;;;;;5115698;28;19924;-61
2021/07/17 01:11:51;;;;;;;;;;;17.90;61.00;;;;;;5116062;28;19998;-61
2021/07/17 01:14:18;;;;;;;;;;;17.90;61.20;;;;;;5115582;28;20011;-62
2021/07/17 01:16:44;;;;;;;;;;;17.90;61.50;;;;;;5115438;28;20028;-61
2021/07/17 01:19:11;;;;;;;;;;;17.80;61.70;;;;;;5115385;28;19928;-61
2021/07/17 01:21:37;;;;;;;;;;;17.80;61.80;;;;;;5115511;28;20561;-61
2021/07/17 01:24:04;;;;;;;;;;;17.70;62.00;;;;;;5115725;28;19924;-61
2021/07/17 01:26:30;;;;;;;;;;;17.70;61.90;;;;;;5111009;28;20299;-62
2021/07/17 01:28:56;;;;;;;;;;;17.70;62.00;;;;;;5115937;28;19934;-61
2021/07/17 01:31:22;;;;;;;;;;;17.70;62.00;;;;;;5115288;28;20434;-61
2021/07/17 01:33:49;;;;;;;;;;;17.60;62.00;;;;;;5115633;28;19931;-61
2021/07/17 01:36:15;;;;;;;;;;;17.60;62.10;;;;;;5115377;28;19923;-61
2021/07/17 01:38:42;;;;;;;;;;;17.60;62.10;;;;;;5114949;28;19928;-61
2021/07/17 01:41:09;;;;;;;;;;;17.60;62.20;;;;;;5111684;28;20365;-61
2021/07/17 01:43:36;;;;;;;;;;;17.60;62.30;;;;;;5112001;28;19924;-61
2021/07/17 01:46:02;;;;;;;;;;;17.60;62.30;;;;;;5115228;28;19931;-61
2021/07/17 01:48:28;;;;;;;;;;;17.50;62.30;;;;;;5114895;28;20426;-61
2021/07/17 01:50:54;;;;;;;;;;;17.50;62.40;;;;;;5115313;28;19931;-61
2021/07/17 01:53:21;;;;;;;;;;;17.50;62.60;;;;;;5113272;28;19940;-61
2021/07/17 01:55:47;;;;;;;;;;;17.50;62.50;;;;;;5114878;28;19923;-61
2021/07/17 01:58:13;;;;;;;;;;;17.50;62.80;;;;;;5114666;28;20399;-61
2021/07/17 02:00:39;;;;;;;;;;;17.50;62.80;;;;;;5114769;28;19923;-60
2021/07/17 02:03:06;;;;;;;;;;;17.40;62.80;;;;;;5114887;28;20301;-61
2021/07/17 02:05:32;;;;;;;;;;;17.50;63.00;;;;;;5114676;28;19999;-61
2021/07/17 02:07:59;;;;;;;;;;;17.40;62.90;;;;;;5114140;28;20270;-60
2021/07/17 02:10:30;;;;;;;;;;;17.50;63.00;;;;;;5114546;28;20060;-61
2021/07/17 02:13:05;;;;;;;;;;;17.50;63.00;;;;;;5114601;28;19928;-61
2021/07/17 02:15:36;;;;;;;;;;;17.40;63.10;;;;;;5114553;28;19967;-61
2021/07/17 02:18:02;;;;;;;;;;;17.50;63.30;;;;;;5114396;28;20395;-61
2021/07/17 02:20:29;;;;;;;;;;;17.50;63.50;;;;;;5114681;28;20390;-61
2021/07/17 02:22:55;;;;;;;;;;;17.40;63.60;;;;;;5114596;28;20006;-61
2021/07/17 02:25:21;;;;;;;;;;;17.50;63.70;;;;;;5114210;28;20378;-61
2021/07/17 02:27:47;;;;;;;;;;;17.50;63.70;;;;;;5114190;28;19959;-61
2021/07/17 02:30:13;;;;;;;;;;;17.50;63.80;;;;;;5114136;28;19946;-61
2021/07/17 02:32:39;;;;;;;;;;;17.40;64.10;;;;;;5113618;28;20010;-61
2021/07/17 02:35:06;;;;;;;;;;;17.40;64.40;;;;;;5114435;28;20022;-61
2021/07/17 02:37:32;;;;;;;;;;;17.40;64.70;;;;;;5100014;28;20306;-61
2021/07/17 02:39:58;;;;;;;;;;;17.40;65.00;;;;;;5114191;28;20023;-61
2021/07/17 02:42:25;;;;;;;;;;;17.30;65.20;;;;;;5104076;28;19961;-61
2021/07/17 02:44:51;;;;;;;;;;;17.30;65.70;;;;;;5114424;28;20132;-61
2021/07/17 02:47:18;;;;;;;;;;;17.30;65.90;;;;;;5113228;28;19976;-61
2021/07/17 02:49:44;;;;;;;;;;;17.30;67.00;;;;;;5114013;28;19924;-61
2021/07/17 02:52:10;;;;;;;;;;;17.20;66.30;;;;;;5113193;28;19924;-61
2021/07/17 02:54:36;;;;;;;;;;;17.30;66.50;;;;;;5113424;28;19939;-61
2021/07/17 02:57:02;;;;;;;;;;;17.20;66.70;;;;;;5114078;28;20327;-61
2021/07/17 02:59:28;;;;;;;;;;;17.20;66.80;;;;;;5113765;28;19987;-62
2021/07/17 03:01:55;;;;;;;;;;;17.20;66.90;;;;;;5113301;28;20386;-61
2021/07/17 03:04:21;;;;;;;;;;;17.20;67.10;;;;;;5113516;28;20010;-61
2021/07/17 03:06:47;;;;;;;;;;;17.20;67.30;;;;;;5113737;28;20003;-61
2021/07/17 03:09:13;;;;;;;;;;;17.20;67.50;;;;;;5113670;28;19930;-61
2021/07/17 03:11:39;;;;;;;;;;;17.20;67.70;;;;;;5113627;28;19985;-61
2021/07/17 03:14:05;;;;;;;;;;;17.10;67.80;;;;;;5113745;28;20378;-61
2021/07/17 03:16:31;;;;;;;;;;;17.10;67.90;;;;;;5112772;28;19930;-61
2021/07/17 03:18:58;;;;;;;;;;;17.10;67.80;;;;;;5112670;28;19924;-61
2021/07/17 03:21:25;;;;;;;;;;;17.10;68.00;;;;;;5113343;28;19972;-61
2021/07/17 03:23:51;;;;;;;;;;;17.10;68.00;;;;;;5113406;28;19984;-61
2021/07/17 03:26:17;;;;;;;;;;;17.00;68.20;;;;;;5113734;28;19924;-61
2021/07/17 03:28:43;;;;;;;;;;;17.00;68.30;;;;;;5113185;28;19969;-61
2021/07/17 03:31:10;;;;;;;;;;;17.00;68.50;;;;;;5113259;28;19975;-61
2021/07/17 03:33:36;;;;;;;;;;;16.90;68.60;;;;;;5113163;28;20267;-61
2021/07/17 03:36:02;;;;;;;;;;;16.90;68.70;;;;;;5113401;28;19935;-61
2021/07/17 03:38:28;;;;;;;;;;;16.90;68.90;;;;;;5113081;28;20020;-61
2021/07/17 03:40:54;;;;;;;;;;;16.90;69.00;;;;;;5112132;28;19972;-61
2021/07/17 03:43:20;;;;;;;;;;;16.90;69.10;;;;;;5108234;28;19931;-61
2021/07/17 03:45:47;;;;;;;;;;;16.90;69.20;;;;;;5113100;28;19924;-61
2021/07/17 03:48:13;;;;;;;;;;;16.90;69.20;;;;;;5113155;28;20044;-61
2021/07/17 03:50:39;;;;;;;;;;;16.80;69.40;;;;;;5112945;28;19923;-61
2021/07/17 03:53:05;;;;;;;;;;;16.80;69.50;;;;;;5113209;28;20016;-61
2021/07/17 03:55:31;;;;;;;;;;;16.80;70.50;;;;;;5112569;28;19924;-61
2021/07/17 03:57:57;;;;;;;;;;;16.70;69.70;;;;;;5112879;28;19931;-61
2021/07/17 04:00:23;;;;;;;;;;;16.70;69.90;;;;;;5113042;28;19924;-61
2021/07/17 04:02:50;;;;;;;;;;;16.70;70.00;;;;;;5112890;28;20003;-61
2021/07/17 04:05:16;;;;;;;;;;;16.60;70.10;;;;;;5114496;28;20411;-61
2021/07/17 04:07:43;;;;;;;;;;;16.60;70.10;;;;;;5116827;28;20382;-61
2021/07/17 04:10:10;;;;;;;;;;;16.60;70.30;;;;;;5117436;28;19970;-61
2021/07/17 04:12:36;;;;;;;;;;;16.60;70.40;;;;;;5117198;28;20006;-61
2021/07/17 04:15:03;;;;;;;;;;;16.50;70.50;;;;;;5116698;28;19930;-61
2021/07/17 04:17:29;;;;;;;;;;;16.50;70.60;;;;;;5116951;28;19923;-61
2021/07/17 04:19:55;;;;;;;;;;;16.50;70.60;;;;;;5116375;28;19924;-61
2021/07/17 04:22:22;;;;;;;;;;;16.50;70.60;;;;;;5116637;28;19924;-61
2021/07/17 04:24:48;;;;;;;;;;;16.50;70.70;;;;;;5116489;28;20328;-61
2021/07/17 04:27:14;;;;;;;;;;;16.50;70.70;;;;;;5116778;28;19931;-61
2021/07/17 04:29:40;;;;;;;;;;;16.50;70.70;;;;;;5116145;28;20025;-62
2021/07/17 04:32:06;;;;;;;;;;;16.50;70.80;;;;;;5116727;28;19984;-61
2021/07/17 04:34:32;;;;;;;;;;;16.40;70.80;;;;;;5116245;28;20015;-61
2021/07/17 04:36:58;;;;;;;;;;;16.40;70.80;;;;;;5116267;28;19966;-61
2021/07/17 04:39:25;;;;;;;;;;;16.50;70.90;;;;;;5116479;28;19999;-61
2021/07/17 04:41:51;;;;;;;;;;;16.40;70.80;;;;;;5109450;28;19924;-61
2021/07/17 04:44:17;;;;;;;;;;;16.40;70.90;;;;;;5116105;28;20318;-61
2021/07/17 04:46:44;;;;;;;;;;;16.40;71.00;;;;;;5116366;28;19962;-61
2021/07/17 04:49:10;;;;;;;;;;;16.40;71.10;;;;;;5116048;28;20006;-61
2021/07/17 04:51:36;;;;;;;;;;;16.40;71.20;;;;;;5116292;28;19924;-61
2021/07/17 04:54:02;;;;;;;;;;;16.40;71.40;;;;;;5115855;28;19931;-61
2021/07/17 04:56:28;;;;;;;;;;;16.40;71.40;;;;;;5116368;28;20025;-61
2021/07/17 04:58:54;;;;;;;;;;;16.40;71.50;;;;;;5114620;28;19924;-61
2021/07/17 05:01:21;;;;;;;;;;;16.30;71.50;;;;;;5104908;28;19927;-61
2021/07/17 05:03:47;;;;;;;;;;;16.30;71.50;;;;;;5115907;28;19932;-61
2021/07/17 05:06:14;;;;;;;;;;;16.30;71.70;;;;;;5115951;28;20451;-61
2021/07/17 05:08:40;;;;;;;;;;;16.30;71.70;;;;;;5115948;28;19976;-61
2021/07/17 05:11:06;;;;;;;;;;;16.40;71.70;;;;;;5115850;28;20003;-61
2021/07/17 05:13:32;;;;;;;;;;;16.30;71.70;;;;;;5115773;28;19923;-61
2021/07/17 05:15:58;;;;;;;;;;;16.40;71.80;;;;;;5115153;28;19976;-61
2021/07/17 05:18:25;;;;;;;;;;;16.40;71.80;;;;;;5115489;28;20395;-61
2021/07/17 05:20:51;;;;;;;;;;;16.40;71.80;;;;;;5115239;28;20320;-61
2021/07/17 05:23:17;;;;;;;;;;;16.40;71.70;;;;;;5115259;28;19939;-61
2021/07/17 05:25:44;;;;;;;;;;;16.50;72.90;;;;;;5115705;28;20354;-61
2021/07/17 05:28:11;;;;;;;;;;;16.50;72.10;;;;;;5114953;28;19977;-61
2021/07/17 05:30:37;;;;;;;;;;;16.60;71.80;;;;;;5115387;28;19976;-61
2021/07/17 05:33:03;;;;;;;;;;;16.60;71.80;;;;;;5115344;28;20011;-61
2021/07/17 05:35:30;;;;;;;;;;;16.60;71.50;;;;;;5115440;28;20012;-61
2021/07/17 05:37:57;;;;;;;;;;;16.60;71.20;;;;;;5115458;28;19931;-61
2021/07/17 05:40:23;;;;;;;;;;;16.70;71.20;;;;;;5115340;28;19947;-61
2021/07/17 05:42:49;;;;;;;;;;;16.80;71.00;;;;;;5108174;28;20401;-61
2021/07/17 05:45:15;;;;;;;;;;;16.80;71.00;;;;;;5109097;28;19970;-61
2021/07/17 05:47:42;;;;;;;;;;;16.80;70.80;;;;;;5115179;28;19924;-61
2021/07/17 05:50:08;;;;;;;;;;;16.80;70.70;;;;;;5115046;28;19927;-61
2021/07/17 05:52:35;;;;;;;;;;;16.80;70.80;;;;;;5115212;28;20005;-61
2021/07/17 05:55:01;;;;;;;;;;;16.90;70.70;;;;;;5115344;28;20057;-61
2021/07/17 05:57:27;;;;;;;;;;;16.90;70.60;;;;;;5114680;28;19928;-61
2021/07/17 05:59:53;;;;;;;;;;;16.90;70.40;;;;;;5114826;28;20014;-61
2021/07/17 06:02:20;;;;;;;;;;;17.00;70.60;;;;;;5114378;28;20412;-61
2021/07/17 06:04:46;;;;;;;;;;;16.90;70.50;;;;;;5114689;28;20041;-61
2021/07/17 06:07:12;;;;;;;;;;;17.00;70.70;;;;;;5114402;28;19929;-61
2021/07/17 06:09:41;;;;;;;;;;;17.00;70.60;;;;;;5114649;28;20401;-61
2021/07/17 06:12:08;;;;;;;;;;;17.00;70.60;;;;;;5113760;28;19935;-61
2021/07/17 06:14:35;;;;;;;;;;;17.10;70.70;;;;;;5114569;28;20386;-61
2021/07/17 06:17:01;;;;;;;;;;;17.10;70.60;;;;;;5113586;28;19923;-61
2021/07/17 06:19:27;;;;;;;;;;;17.10;70.10;;;;;;5114481;28;19924;-61
2021/07/17 06:21:53;;;;;;;;;;;17.20;70.50;;;;;;5113671;28;20384;-61
2021/07/17 06:24:19;;;;;;;;;;;17.20;70.50;;;;;;5114243;28;20023;-61
2021/07/17 06:26:45;;;;;;;;;;;17.20;70.50;;;;;;5113798;28;19974;-61
2021/07/17 06:29:11;;;;;;;;;;;17.20;70.30;;;;;;5113626;28;20426;-61
2021/07/17 06:31:37;;;;;;;;;;;17.20;70.30;;;;;;5113906;28;19928;-61
2021/07/17 06:34:06;;;;;;;;;;;17.30;70.40;;;;;;5114066;28;19923;-61
2021/07/17 06:36:33;;;;;;;;;;;17.40;70.30;;;;;;5113745;28;19948;-61
2021/07/17 06:38:59;;;;;;;;;;;17.40;70.10;;;;;;5119645;27;20316;-61
2021/07/17 06:41:25;;;;;;;;;;;17.40;69.80;;;;;;5132911;27;20007;-61
2021/07/17 06:43:51;;;;;;;;;;;17.40;69.60;;;;;;5128561;27;19924;-61
2021/07/17 06:46:17;;;;;;;;;;;17.50;69.80;;;;;;5132018;27;20007;-61
2021/07/17 06:48:43;;;;;;;;;;;17.60;69.80;;;;;;5130014;27;19977;-61
2021/07/17 06:51:09;;;;;;;;;;;17.60;69.50;;;;;;5132433;27;19927;-61
2021/07/17 06:53:36;;;;;;;;;;;17.70;69.20;;;;;;5125330;27;20064;-61
2021/07/17 06:56:02;;;;;;;;;;;17.80;69.10;;;;;;5132039;27;19931;-61
2021/07/17 06:58:29;;;;;;;;;;;17.90;68.80;;;;;;5132133;27;19934;-61
2021/07/17 07:00:55;;;;;;;;;;;18.00;68.60;;;;;;5124796;27;20080;-61
2021/07/17 07:03:21;;;;;;;;;;;18.10;68.50;;;;;;5126224;27;20015;-61
2021/07/17 07:05:47;;;;;;;;;;;18.20;67.80;;;;;;5133066;27;20063;-61
2021/07/17 07:08:13;;;;;;;;;;;18.30;68.20;;;;;;5127818;27;20041;-61
2021/07/17 07:10:39;;;;;;;;;;;18.40;68.00;;;;;;5132823;27;20078;-61
2021/07/17 07:13:10;;;;;;;;;;;18.50;67.40;;;;;;5112938;27;20072;-61
2021/07/17 07:15:36;;;;;;;;;;;18.60;66.10;;;;;;5118687;27;20019;-61
2021/07/17 07:18:03;;;;;;;;;;;18.80;66.10;;;;;;5115283;27;20061;-61
2021/07/17 07:20:29;;;;;;;;;;;19.00;65.20;;;;;;5114047;27;20393;-61
2021/07/17 07:22:55;;;;;;;;;;;19.10;65.10;;;;;;5112506;28;19977;-61
2021/07/17 07:25:21;;;;;;;;;;;19.20;64.70;;;;;;5121837;27;19927;-61
2021/07/17 07:27:48;;;;;;;;;;;19.40;64.60;;;;;;5115761;27;19924;-61
2021/07/17 07:30:15;;;;;;;;;;;19.60;63.70;;;;;;5111790;28;20408;-62
2021/07/17 07:32:41;;;;;;;;;;;19.80;62.40;;;;;;5105936;28;19928;-61
2021/07/17 07:35:08;;;;;;;;;;;19.90;62.10;;;;;;5121118;27;20498;-62
2021/07/17 07:37:34;;;;;;;;;;;20.00;61.10;;;;;;5112646;28;19981;-61
2021/07/17 07:40:01;;;;;;;;;;;20.20;60.50;;;;;;5122010;27;20072;-61
2021/07/17 07:42:28;;;;;;;;;;;20.30;59.40;;;;;;5122694;28;19923;-61
2021/07/17 07:44:54;;;;;;;;;;;20.40;59.60;;;;;;5132661;28;19942;-61
2021/07/17 07:47:20;;;;;;;;;;;20.50;58.40;;;;;;5111956;28;20295;-62
2021/07/17 07:49:46;;;;;;;;;;;20.50;57.40;;;;;;5123781;28;20052;-61
2021/07/17 07:52:13;;;;;;;;;;;20.50;57.90;;;;;;5120950;28;19924;-61
2021/07/17 07:54:39;;;;;;;;;;;20.50;58.50;;;;;;5128915;28;20060;-62
2021/07/17 07:57:06;;;;;;;;;;;20.70;59.20;;;;;;5126976;28;19993;-61
2021/07/17 07:59:32;;;;;;;;;;;20.90;58.50;;;;;;5114986;28;19949;-61
2021/07/17 08:01:58;;;;;;;;;;;21.10;54.40;;;;;;5118496;28;19946;-61
2021/07/17 08:04:24;;;;;;;;;;;21.20;53.70;;;;;;5126100;28;20402;-61
2021/07/17 08:06:50;;;;;;;;;;;21.30;52.10;;;;;;5118623;28;20022;-61
2021/07/17 08:09:16;;;;;;;;;;;21.50;51.70;;;;;;5111105;28;20014;-62
2021/07/17 08:11:42;;;;;;;;;;;21.60;52.70;;;;;;5124653;28;20403;-61
2021/07/17 08:14:08;;;;;;;;;;;21.80;51.00;;;;;;5119163;28;19924;-61
2021/07/17 08:16:34;;;;;;;;;;;21.80;51.50;;;;;;5127295;28;20049;-64
2021/07/17 08:19:01;;;;;;;;;;;22.00;52.20;;;;;;5126206;28;19967;-62
2021/07/17 08:21:27;;;;;;;;;;;22.30;52.90;;;;;;5128638;28;19923;-62
2021/07/17 08:23:53;;;;;;;;;;;22.60;52.90;;;;;;5123100;28;19949;-62
2021/07/17 08:26:19;;;;;;;;;;;22.90;52.10;;;;;;5123848;28;19952;-62
2021/07/17 08:28:45;;;;;;;;;;;23.20;52.00;;;;;;5104539;28;20386;-62
2021/07/17 08:31:11;;;;;;;;;;;23.50;51.30;;;;;;5112536;28;19978;-62
2021/07/17 08:33:37;;;;;;;;;;;23.80;49.60;;;;;;5112228;28;19931;-62
2021/07/17 08:36:04;;;;;;;;;;;24.10;50.00;;;;;;5118467;28;20406;-62
2021/07/17 08:38:30;;;;;;;;;;;24.40;48.70;;;;;;5115004;28;19969;-64
2021/07/17 08:40:57;;;;;;;;;;;24.60;46.10;;;;;;5111198;28;19963;-66
2021/07/17 08:43:23;;;;;;;;;;;24.50;44.80;;;;;;5108395;28;19923;-64
2021/07/17 08:45:49;;;;;;;;;;;24.50;46.40;;;;;;5112616;28;19932;-65
2021/07/17 08:48:16;;;;;;;;;;;24.70;46.00;;;;;;5112198;28;20014;-64
2021/07/17 08:50:42;;;;;;;;;;;24.80;44.80;;;;;;5111959;28;19975;-65
2021/07/17 08:53:08;;;;;;;;;;;25.00;44.70;;;;;;5115305;28;20390;-65
2021/07/17 08:55:34;;;;;;;;;;;25.20;43.50;;;;;;5115789;28;19924;-64
2021/07/17 08:58:01;;;;;;;;;;;25.40;43.20;;;;;;5125143;27;20006;-64
2021/07/17 09:00:28;;;;;;;;;;;25.50;42.50;;;;;;5132873;27;20006;-65
2021/07/17 09:02:56;;;;;;;;;;;25.50;42.00;;;;;;5115679;28;19924;-66
2021/07/17 09:05:25;;;;;;;;;;;25.70;43.20;;;;;;5129394;27;20281;-65
2021/07/17 09:07:52;;;;;;;;;;;26.00;44.00;;;;;;5126445;27;19982;-65
2021/07/17 09:10:30;;;;;;;;;;;26.20;42.80;;;;;;5122891;27;19965;-65
2021/07/17 09:13:09;;;;;;;;;;;26.40;42.20;;;;;;5112015;27;19924;-65
2021/07/17 09:15:36;;;;;;;;;;;26.70;41.30;;;;;;5115652;28;19998;-65
2021/07/17 09:18:03;;;;;;;;;;;26.90;40.60;;;;;;5106620;28;19928;-65
2021/07/17 09:20:29;;;;;;;;;;;27.00;40.60;;;;;;5114951;28;19924;-65
2021/07/17 09:22:57;;;;;;;;;;;27.20;40.00;;;;;;5105799;28;19924;-65
2021/07/17 09:25:23;;;;;;;;;;;27.40;39.80;;;;;;5115534;28;20303;-65
2021/07/17 09:27:49;;;;;;;;;;;27.50;38.10;;;;;;5106366;28;20042;-65
2021/07/17 09:30:24;;;;;;;;;;;27.50;39.80;;;;;;5114472;28;20448;-65
2021/07/17 09:33:02;;;;;;;;;;;27.60;39.30;;;;;;5105511;28;20275;-65
2021/07/17 09:35:28;;;;;;;;;;;27.80;38.50;;;;;;5113886;28;19967;-65
2021/07/17 09:37:55;;;;;;;;;;;27.70;37.70;;;;;;5105036;28;20010;-65
2021/07/17 09:40:24;;;;;;;;;;;27.60;38.20;;;;;;5113173;28;20014;-65
2021/07/17 09:42:51;;;;;;;;;;;27.60;38.70;;;;;;5114977;28;19955;-65
2021/07/17 09:45:33;;;;;;;;;;;27.60;40.00;;;;;;5115103;28;20394;-65
2021/07/17 09:48:00;;;;;;;;;;;27.70;38.40;;;;;;5105567;28;20043;-65
2021/07/17 09:50:32;;;;;;;;;;;27.90;39.30;;;;;;5112023;28;19968;-65
2021/07/17 09:52:59;;;;;;;;;;;28.10;39.10;;;;;;5114444;28;19924;-65
2021/07/17 09:55:25;;;;;;;;;;;28.30;38.20;;;;;;5114609;28;20299;-65
2021/07/17 09:57:51;;;;;;;;;;;28.60;37.50;;;;;;5113887;28;19924;-65
2021/07/17 10:00:19;;;;;;;;;;;28.90;37.30;;;;;;5113093;28;20057;-65
2021/07/17 10:02:45;;;;;;;;;;;28.90;37.00;;;;;;5113774;28;20027;-65
2021/07/17 10:05:15;;;;;;;;;;;28.90;37.50;;;;;;5114549;28;20381;-65
2021/07/17 10:07:41;;;;;;;;;;;29.10;36.60;;;;;;5114556;28;19924;-65
2021/07/17 10:10:08;;;;;;;;;;;29.20;35.50;;;;;;5115020;28;19967;-65
2021/07/17 10:12:41;;;;;;;;;;;29.10;34.80;;;;;;5114047;28;19931;-65
2021/07/17 10:15:09;;;;;;;;;;;29.00;35.30;;;;;;5100488;28;20109;-65
2021/07/17 10:17:39;;;;;;;;;;;29.00;35.90;;;;;;5113839;28;20374;-65
2021/07/17 10:20:07;;;;;;;;;;;29.00;36.70;;;;;;5114525;28;20367;-65
2021/07/17 10:22:34;;;;;;;;;;;29.30;35.20;;;;;;5114051;28;19923;-65
2021/07/17 10:25:01;;;;;;;;;;;29.20;35.50;;;;;;5113961;28;20326;-65
2021/07/17 10:27:27;;;;;;;;;;;29.00;34.60;;;;;;5112949;28;19931;-65
2021/07/17 10:29:53;;;;;;;;;;;28.90;35.80;;;;;;5114340;28;20509;-65
2021/07/17 10:32:19;;;;;;;;;;;29.10;34.50;;;;;;5113694;28;20000;-65
2021/07/17 10:34:46;;;;;;;;;;;28.90;33.30;;;;;;5114004;28;20001;-65
2021/07/17 10:37:22;;;;;;;;;;;28.60;33.50;;;;;;5113544;28;19948;-65
2021/07/17 10:39:49;;;;;;;;;;;28.30;33.60;;;;;;5114203;28;19924;-65
2021/07/17 10:42:18;;;;;;;;;;;27.90;35.20;;;;;;5107112;28;19927;-65
2021/07/17 10:44:46;;;;;;;;;;;27.40;35.90;;;;;;5114080;28;19935;-65
2021/07/17 10:47:12;;;;;;;;;;;27.00;35.80;;;;;;5113608;28;19930;-65
2021/07/17 10:49:40;;;;;;;;;;;26.80;36.30;;;;;;5114072;28;19923;-65
2021/07/17 10:52:07;;;;;;;;;;;26.50;37.60;;;;;;5113715;28;20027;-64
2021/07/17 10:54:33;;;;;;;;;;;26.40;37.90;;;;;;5113755;28;19924;-65
2021/07/17 10:57:00;;;;;;;;;;;26.40;37.60;;;;;;5113375;28;19924;-64
2021/07/17 10:59:26;;;;;;;;;;;26.40;35.50;;;;;;5094826;28;20014;-65
2021/07/17 11:01:55;;;;;;;;;;;26.20;37.60;;;;;;5112873;28;19931;-65
2021/07/17 11:04:30;;;;;;;;;;;26.10;36.40;;;;;;5102179;28;20011;-66
2021/07/17 11:07:16;;;;;;;;;;;25.80;36.90;;;;;;5119636;27;19924;-65
2021/07/17 11:09:49;;;;;;;;;;;25.70;38.40;;;;;;5110867;28;20382;-64
2021/07/17 11:12:16;;;;;;;;;;;25.50;37.40;;;;;;5111634;28;20012;-64
2021/07/17 11:14:42;;;;;;;;;;;25.40;38.90;;;;;;5116190;27;20315;-64
2021/07/17 11:17:08;;;;;;;;;;;25.30;39.70;;;;;;5112829;28;19963;-65
2021/07/17 11:19:34;;;;;;;;;;;25.40;40.50;;;;;;5112246;28;19924;-64
2021/07/17 11:22:13;;;;;;;;;;;25.50;40.50;;;;;;5112450;28;20391;-66
2021/07/17 11:24:39;;;;;;;;;;;25.60;40.10;;;;;;5111381;28;19923;-67
2021/07/17 11:27:16;;;;;;;;;;;25.70;38.90;;;;;;5113100;28;20031;-65
2021/07/17 11:29:44;;;;;;;;;;;25.70;38.30;;;;;;5112135;28;19976;-65
2021/07/17 11:32:12;;;;;;;;;;;25.70;38.60;;;;;;5113214;28;19927;-64
2021/07/17 11:34:43;;;;;;;;;;;25.70;37.30;;;;;;5113293;28;20004;-65
2021/07/17 11:37:10;;;;;;;;;;;25.70;39.80;;;;;;5110931;28;20014;-64
2021/07/17 11:39:39;;;;;;;;;;;25.70;39.60;;;;;;5109099;28;19924;-64
2021/07/17 11:42:06;;;;;;;;;;;25.70;37.90;;;;;;5110061;28;19928;-64
2021/07/17 11:44:34;;;;;;;;;;;25.70;37.30;;;;;;5112665;28;19924;-64
2021/07/17 11:47:01;;;;;;;;;;;25.70;38.00;;;;;;5112434;28;20010;-64
2021/07/17 11:49:29;;;;;;;;;;;25.70;38.70;;;;;;5117766;28;19923;-64
2021/07/17 11:51:56;;;;;;;;;;;25.70;37.50;;;;;;5117561;28;19923;-64
2021/07/17 11:54:23;;;;;;;;;;;25.70;37.90;;;;;;5112103;28;19968;-63
2021/07/17 11:57:07;;;;;;;;;;;25.70;40.30;;;;;;5113290;28;19972;-63
2021/07/17 11:59:35;;;;;;;;;;;25.70;38.70;;;;;;5112687;28;19924;-63
2021/07/17 12:02:15;;;;;;;;;;;25.70;38.10;;;;;;5112747;28;20041;-64
2021/07/17 12:04:43;;;;;;;;;;;25.70;38.70;;;;;;5112716;28;19963;-64
2021/07/17 12:07:11;;;;;;;;;;;25.70;38.90;;;;;;5112543;28;20436;-64
2021/07/17 12:09:57;;;;;;;;;;;25.80;37.40;;;;;;5112984;28;19931;-63
2021/07/17 12:12:27;;;;;;;;;;;25.80;38.10;;;;;;5107352;28;19927;-64
2021/07/17 12:14:59;;;;;;;;;;;25.80;38.90;;;;;;5106841;28;19928;-64
2021/07/17 12:17:25;;;;;;;;;;;25.80;40.10;;;;;;5103124;28;19935;-64
2021/07/17 12:20:03;;;;;;;;;;;25.90;40.50;;;;;;5108585;28;20330;-63
2021/07/17 12:22:30;;;;;;;;;;;26.00;40.00;;;;;;5106399;28;19939;-64
2021/07/17 12:25:00;;;;;;;;;;;26.00;38.60;;;;;;5111059;28;20001;-64
2021/07/17 12:27:26;;;;;;;;;;;26.00;39.30;;;;;;5110521;28;19967;-64
2021/07/17 12:29:52;;;;;;;;;;;25.90;39.80;;;;;;5112516;28;20394;-64
2021/07/17 12:32:19;;;;;;;;;;;26.00;39.70;;;;;;5112110;28;20042;-63
2021/07/17 12:34:55;;;;;;;;;;;25.90;39.30;;;;;;5120188;27;20050;-64
2021/07/17 12:37:25;;;;;;;;;;;25.90;40.00;;;;;;5112341;28;19938;-64
2021/07/17 12:40:03;;;;;;;;;;;25.80;41.90;;;;;;5112745;28;20046;-64
2021/07/17 12:42:31;;;;;;;;;;;25.90;42.70;;;;;;5111079;28;20014;-64
2021/07/17 12:44:58;;;;;;;;;;;26.00;42.10;;;;;;5108504;28;20394;-64
2021/07/17 12:47:24;;;;;;;;;;;26.00;41.50;;;;;;5112434;28;19927;-64
2021/07/17 12:50:00;;;;;;;;;;;26.10;42.10;;;;;;5110692;28;19961;-64
2021/07/17 12:52:26;;;;;;;;;;;26.20;41.70;;;;;;5111737;28;20006;-64
2021/07/17 12:55:03;;;;;;;;;;;26.20;41.80;;;;;;5112408;28;19939;-64
2021/07/17 12:57:30;;;;;;;;;;;26.30;40.90;;;;;;5112143;28;20014;-64
2021/07/17 12:59:57;;;;;;;;;;;26.30;40.40;;;;;;5111863;28;19934;-64
2021/07/17 13:02:23;;;;;;;;;;;26.30;40.20;;;;;;5111859;28;20083;-64
2021/07/17 13:04:50;;;;;;;;;;;26.30;41.40;;;;;;5112282;28;19976;-64
2021/07/17 13:07:26;;;;;;;;;;;26.40;40.20;;;;;;5100475;28;20037;-64
2021/07/17 13:09:52;;;;;;;;;;;26.30;40.30;;;;;;5111213;28;19932;-64
2021/07/17 13:12:26;;;;;;;;;;;26.30;40.80;;;;;;5111882;28;20589;-64
2021/07/17 13:14:52;;;;;;;;;;;26.30;40.00;;;;;;5109403;28;19932;-64
2021/07/17 13:17:20;;;;;;;;;;;26.30;40.70;;;;;;5111622;28;19924;-64
2021/07/17 13:19:59;;;;;;;;;;;26.30;41.10;;;;;;5111854;28;20407;-64
2021/07/17 13:22:32;;;;;;;;;;;26.30;41.30;;;;;;5111491;28;19980;-64
2021/07/17 13:25:08;;;;;;;;;;;26.40;41.00;;;;;;5111486;28;20010;-64
2021/07/17 13:27:34;;;;;;;;;;;26.30;40.50;;;;;;5111582;28;20631;-64
2021/07/17 13:30:00;;;;;;;;;;;26.30;40.40;;;;;;5111798;28;20298;-64
2021/07/17 13:32:38;;;;;;;;;;;26.30;40.80;;;;;;5110885;28;20284;-63
2021/07/17 13:35:14;;;;;;;;;;;26.30;41.80;;;;;;5111720;28;20352;-64
2021/07/17 13:37:42;;;;;;;;;;;26.30;40.90;;;;;;5110354;28;19928;-63
2021/07/17 13:40:11;;;;;;;;;;;26.30;40.50;;;;;;5111019;28;20377;-64
2021/07/17 13:42:38;;;;;;;;;;;26.20;40.40;;;;;;5104617;28;19997;-63
2021/07/17 13:45:08;;;;;;;;;;;26.20;41.30;;;;;;5111598;28;19927;-64
2021/07/17 13:47:36;;;;;;;;;;;26.20;41.20;;;;;;5110506;28;19927;-63
2021/07/17 13:50:03;;;;;;;;;;;26.20;40.50;;;;;;5111484;28;19934;-64
2021/07/17 13:52:31;;;;;;;;;;;26.10;42.00;;;;;;5111084;28;19936;-64
2021/07/17 13:55:07;;;;;;;;;;;26.00;42.70;;;;;;5122203;27;20006;-64
2021/07/17 13:57:41;;;;;;;;;;;26.10;42.90;;;;;;5116622;27;20042;-64
2021/07/17 14:00:07;;;;;;;;;;;26.10;42.50;;;;;;5127943;27;20018;-63
2021/07/17 14:02:33;;;;;;;;;;;26.10;43.60;;;;;;5109826;27;19927;-64
2021/07/17 14:04:59;;;;;;;;;;;26.20;44.10;;;;;;5127352;27;19988;-64
2021/07/17 14:07:25;;;;;;;;;;;26.20;43.60;;;;;;5104416;27;20080;-64
2021/07/17 14:09:52;;;;;;;;;;;26.30;43.40;;;;;;5112940;27;19928;-64
2021/07/17 14:12:18;;;;;;;;;;;26.30;43.60;;;;;;5126702;27;20014;-64
2021/07/17 14:14:44;;;;;;;;;;;26.30;43.60;;;;;;5117272;27;19976;-66
2021/07/17 14:17:10;;;;;;;;;;;26.40;43.40;;;;;;5127306;27;19927;-65